sensor_id;sensor_type;location;lat;lon;timestamp;P1;durP1;ratioP1;P2;durP2;ratioP2
19225;SDS011;9747;48.536;12.522;2023-04-03T00:02:04;1.67;;;1.58;;
19225;SDS011;9747;48.536;12.522;2023-04-03T00:04:32;1.45;;;1.38;;
19225;SDS011;9747;48.536;12.522;2023-04-03T00:06:59;1.50;;;1.50;;
19225;SDS011;9747;48.536;12.522;2023-04-03T00:09:27;1.70;;;1.60;;
19225;SDS011;9747;48.536;12.522;2023-04-03T00:11:54;2.00;;;1.70;;
19225;SDS011;9747;48.536;12.522;2023-04-03T00:14:23;2.03;;;1.50;;
19225;SDS011;9747;48.536;12.522;2023-04-03T00:16:50;1.52;;;1.50;;
19225;SDS011;9747;48.536;12.522;2023-04-03T00:19:18;1.80;;;1.70;;
19225;SDS011;9747;48.536;12.522;2023-04-03T00:21:45;1.63;;;1.52;;
19225;SDS011;9747;48.536;12.522;2023-04-03T00:24:13;1.50;;;1.50;;
19225;SDS011;9747;48.536;12.522;2023-04-03T00:26:41;1.45;;;1.35;;
19225;SDS011;9747;48.536;12.522;2023-04-03T00:29:08;1.60;;;1.50;;
19225;SDS011;9747;48.536;12.522;2023-04-03T00:31:37;1.45;;;1.40;;
19225;SDS011;9747;48.536;12.522;2023-04-03T00:34:05;1.73;;;1.60;;
19225;SDS011;9747;48.536;12.522;2023-04-03T00:36:32;1.38;;;1.35;;
19225;SDS011;9747;48.536;12.522;2023-04-03T00:39:00;1.95;;;1.85;;
19225;SDS011;9747;48.536;12.522;2023-04-03T00:41:27;1.60;;;1.60;;
19225;SDS011;9747;48.536;12.522;2023-04-03T00:43:55;1.80;;;1.70;;
19225;SDS011;9747;48.536;12.522;2023-04-03T00:46:22;1.40;;;1.40;;
19225;SDS011;9747;48.536;12.522;2023-04-03T00:48:51;1.27;;;1.27;;
19225;SDS011;9747;48.536;12.522;2023-04-03T00:51:19;1.75;;;1.65;;
19225;SDS011;9747;48.536;12.522;2023-04-03T00:53:50;1.55;;;1.50;;
19225;SDS011;9747;48.536;12.522;2023-04-03T00:56:21;1.70;;;1.60;;
19225;SDS011;9747;48.536;12.522;2023-04-03T00:58:53;1.63;;;1.52;;
19225;SDS011;9747;48.536;12.522;2023-04-03T01:01:23;1.73;;;1.63;;
19225;SDS011;9747;48.536;12.522;2023-04-03T01:03:55;1.70;;;1.60;;
19225;SDS011;9747;48.536;12.522;2023-04-03T01:06:24;1.50;;;1.40;;
19225;SDS011;9747;48.536;12.522;2023-04-03T01:09:00;1.13;;;1.13;;
19225;SDS011;9747;48.536;12.522;2023-04-03T01:11:28;1.40;;;1.40;;
19225;SDS011;9747;48.536;12.522;2023-04-03T01:13:56;1.40;;;1.40;;
19225;SDS011;9747;48.536;12.522;2023-04-03T01:16:24;1.38;;;1.38;;
19225;SDS011;9747;48.536;12.522;2023-04-03T01:18:54;1.48;;;1.38;;
19225;SDS011;9747;48.536;12.522;2023-04-03T01:21:35;1.50;;;1.40;;
19225;SDS011;9747;48.536;12.522;2023-04-03T01:24:21;1.88;;;1.30;;
19225;SDS011;9747;48.536;12.522;2023-04-03T01:26:57;1.33;;;1.30;;
19225;SDS011;9747;48.536;12.522;2023-04-03T01:29:25;1.30;;;1.20;;
19225;SDS011;9747;48.536;12.522;2023-04-03T01:31:54;1.38;;;1.27;;
19225;SDS011;9747;48.536;12.522;2023-04-03T01:34:25;1.60;;;1.50;;
19225;SDS011;9747;48.536;12.522;2023-04-03T01:36:54;1.50;;;1.40;;
19225;SDS011;9747;48.536;12.522;2023-04-03T01:39:22;1.30;;;1.30;;
19225;SDS011;9747;48.536;12.522;2023-04-03T01:41:50;1.20;;;1.20;;
19225;SDS011;9747;48.536;12.522;2023-04-03T01:44:25;1.42;;;1.42;;
19225;SDS011;9747;48.536;12.522;2023-04-03T01:46:53;1.60;;;1.50;;
19225;SDS011;9747;48.536;12.522;2023-04-03T01:49:23;1.48;;;1.38;;
19225;SDS011;9747;48.536;12.522;2023-04-03T01:51:51;1.40;;;1.30;;
19225;SDS011;9747;48.536;12.522;2023-04-03T01:54:18;1.55;;;1.45;;
19225;SDS011;9747;48.536;12.522;2023-04-03T01:56:46;1.30;;;1.30;;
19225;SDS011;9747;48.536;12.522;2023-04-03T01:59:13;1.55;;;1.50;;
19225;SDS011;9747;48.536;12.522;2023-04-03T02:01:42;1.50;;;1.40;;
19225;SDS011;9747;48.536;12.522;2023-04-03T02:04:12;1.20;;;1.20;;
19225;SDS011;9747;48.536;12.522;2023-04-03T02:06:40;1.40;;;1.40;;
19225;SDS011;9747;48.536;12.522;2023-04-03T02:09:07;1.50;;;1.40;;
19225;SDS011;9747;48.536;12.522;2023-04-03T02:11:34;1.60;;;1.50;;
19225;SDS011;9747;48.536;12.522;2023-04-03T02:14:02;1.40;;;1.40;;
19225;SDS011;9747;48.536;12.522;2023-04-03T02:16:30;1.40;;;1.40;;
19225;SDS011;9747;48.536;12.522;2023-04-03T02:18:57;1.25;;;1.25;;
19225;SDS011;9747;48.536;12.522;2023-04-03T02:21:26;1.55;;;1.45;;
19225;SDS011;9747;48.536;12.522;2023-04-03T02:23:53;1.30;;;1.30;;
19225;SDS011;9747;48.536;12.522;2023-04-03T02:26:22;1.27;;;1.27;;
19225;SDS011;9747;48.536;12.522;2023-04-03T02:28:50;1.50;;;1.40;;
19225;SDS011;9747;48.536;12.522;2023-04-03T02:31:18;1.17;;;1.17;;
19225;SDS011;9747;48.536;12.522;2023-04-03T02:33:47;1.30;;;1.30;;
19225;SDS011;9747;48.536;12.522;2023-04-03T02:36:15;1.50;;;1.40;;
19225;SDS011;9747;48.536;12.522;2023-04-03T02:38:49;1.27;;;1.23;;
19225;SDS011;9747;48.536;12.522;2023-04-03T02:41:16;1.55;;;1.55;;
19225;SDS011;9747;48.536;12.522;2023-04-03T02:43:44;1.50;;;1.50;;
19225;SDS011;9747;48.536;12.522;2023-04-03T02:46:11;1.45;;;1.40;;
19225;SDS011;9747;48.536;12.522;2023-04-03T02:48:40;1.40;;;1.40;;
19225;SDS011;9747;48.536;12.522;2023-04-03T02:51:08;1.40;;;1.30;;
19225;SDS011;9747;48.536;12.522;2023-04-03T02:53:36;1.70;;;1.60;;
19225;SDS011;9747;48.536;12.522;2023-04-03T02:56:11;1.50;;;1.40;;
19225;SDS011;9747;48.536;12.522;2023-04-03T02:58:38;1.42;;;1.33;;
19225;SDS011;9747;48.536;12.522;2023-04-03T03:01:07;1.60;;;1.50;;
19225;SDS011;9747;48.536;12.522;2023-04-03T03:03:35;1.55;;;1.45;;
19225;SDS011;9747;48.536;12.522;2023-04-03T03:06:03;1.25;;;1.20;;
19225;SDS011;9747;48.536;12.522;2023-04-03T03:08:32;1.55;;;1.45;;
19225;SDS011;9747;48.536;12.522;2023-04-03T03:11:00;1.17;;;1.17;;
19225;SDS011;9747;48.536;12.522;2023-04-03T03:13:29;1.40;;;1.40;;
19225;SDS011;9747;48.536;12.522;2023-04-03T03:15:56;1.40;;;1.40;;
19225;SDS011;9747;48.536;12.522;2023-04-03T03:18:24;1.33;;;1.33;;
19225;SDS011;9747;48.536;12.522;2023-04-03T03:20:52;1.33;;;1.23;;
19225;SDS011;9747;48.536;12.522;2023-04-03T03:23:23;1.40;;;1.30;;
19225;SDS011;9747;48.536;12.522;2023-04-03T03:25:54;1.30;;;1.30;;
19225;SDS011;9747;48.536;12.522;2023-04-03T03:28:22;1.23;;;1.17;;
19225;SDS011;9747;48.536;12.522;2023-04-03T03:30:51;1.35;;;1.30;;
19225;SDS011;9747;48.536;12.522;2023-04-03T03:33:19;1.40;;;1.30;;
19225;SDS011;9747;48.536;12.522;2023-04-03T03:35:46;1.30;;;1.30;;
19225;SDS011;9747;48.536;12.522;2023-04-03T03:38:14;1.17;;;1.17;;
19225;SDS011;9747;48.536;12.522;2023-04-03T03:40:41;1.27;;;1.27;;
19225;SDS011;9747;48.536;12.522;2023-04-03T03:43:09;1.30;;;1.30;;
19225;SDS011;9747;48.536;12.522;2023-04-03T03:45:36;1.20;;;1.20;;
19225;SDS011;9747;48.536;12.522;2023-04-03T03:48:05;1.30;;;1.30;;
19225;SDS011;9747;48.536;12.522;2023-04-03T03:50:32;1.40;;;1.40;;
19225;SDS011;9747;48.536;12.522;2023-04-03T03:53:00;1.20;;;1.20;;
19225;SDS011;9747;48.536;12.522;2023-04-03T03:55:27;1.35;;;1.33;;
19225;SDS011;9747;48.536;12.522;2023-04-03T03:57:56;1.30;;;1.30;;
19225;SDS011;9747;48.536;12.522;2023-04-03T04:00:27;1.42;;;1.42;;
19225;SDS011;9747;48.536;12.522;2023-04-03T04:02:56;1.30;;;1.30;;
19225;SDS011;9747;48.536;12.522;2023-04-03T04:05:26;1.65;;;1.55;;
19225;SDS011;9747;48.536;12.522;2023-04-03T04:07:54;1.50;;;1.40;;
19225;SDS011;9747;48.536;12.522;2023-04-03T04:10:22;1.40;;;1.38;;
19225;SDS011;9747;48.536;12.522;2023-04-03T04:12:51;1.60;;;1.50;;
19225;SDS011;9747;48.536;12.522;2023-04-03T04:15:22;1.52;;;1.42;;
19225;SDS011;9747;48.536;12.522;2023-04-03T04:17:51;1.42;;;1.33;;
19225;SDS011;9747;48.536;12.522;2023-04-03T04:20:19;2.17;;;1.60;;
19225;SDS011;9747;48.536;12.522;2023-04-03T04:22:49;1.70;;;1.60;;
19225;SDS011;9747;48.536;12.522;2023-04-03T04:25:18;2.05;;;1.50;;
19225;SDS011;9747;48.536;12.522;2023-04-03T04:27:45;1.50;;;1.40;;
19225;SDS011;9747;48.536;12.522;2023-04-03T04:30:14;1.50;;;1.40;;
19225;SDS011;9747;48.536;12.522;2023-04-03T04:32:44;1.60;;;1.50;;
19225;SDS011;9747;48.536;12.522;2023-04-03T04:35:12;1.73;;;1.63;;
19225;SDS011;9747;48.536;12.522;2023-04-03T04:37:41;1.40;;;1.30;;
19225;SDS011;9747;48.536;12.522;2023-04-03T04:40:12;1.40;;;1.30;;
19225;SDS011;9747;48.536;12.522;2023-04-03T04:42:39;4.55;;;1.67;;
19225;SDS011;9747;48.536;12.522;2023-04-03T04:45:07;2.83;;;1.80;;
19225;SDS011;9747;48.536;12.522;2023-04-03T04:47:37;2.90;;;1.90;;
19225;SDS011;9747;48.536;12.522;2023-04-03T04:50:05;3.03;;;1.77;;
19225;SDS011;9747;48.536;12.522;2023-04-03T04:52:33;1.73;;;1.60;;
19225;SDS011;9747;48.536;12.522;2023-04-03T04:55:01;4.90;;;1.60;;
19225;SDS011;9747;48.536;12.522;2023-04-03T04:57:30;4.90;;;1.67;;
19225;SDS011;9747;48.536;12.522;2023-04-03T04:59:59;3.90;;;1.77;;
19225;SDS011;9747;48.536;12.522;2023-04-03T05:02:26;4.07;;;1.63;;
19225;SDS011;9747;48.536;12.522;2023-04-03T05:04:54;2.25;;;1.73;;
19225;SDS011;9747;48.536;12.522;2023-04-03T05:07:26;1.90;;;1.40;;
19225;SDS011;9747;48.536;12.522;2023-04-03T05:09:54;4.07;;;1.90;;
19225;SDS011;9747;48.536;12.522;2023-04-03T05:12:22;2.92;;;1.90;;
19225;SDS011;9747;48.536;12.522;2023-04-03T05:14:56;2.22;;;1.73;;
19225;SDS011;9747;48.536;12.522;2023-04-03T05:17:25;2.63;;;1.90;;
19225;SDS011;9747;48.536;12.522;2023-04-03T05:19:55;2.15;;;1.48;;
19225;SDS011;9747;48.536;12.522;2023-04-03T05:22:24;3.35;;;1.50;;
19225;SDS011;9747;48.536;12.522;2023-04-03T05:24:55;2.38;;;1.67;;
19225;SDS011;9747;48.536;12.522;2023-04-03T05:27:23;2.20;;;1.60;;
19225;SDS011;9747;48.536;12.522;2023-04-03T05:29:56;2.13;;;1.60;;
19225;SDS011;9747;48.536;12.522;2023-04-03T05:32:25;2.40;;;1.70;;
19225;SDS011;9747;48.536;12.522;2023-04-03T05:35:05;1.73;;;1.63;;
19225;SDS011;9747;48.536;12.522;2023-04-03T05:37:33;3.08;;;1.40;;
19225;SDS011;9747;48.536;12.522;2023-04-03T05:40:01;1.98;;;1.70;;
19225;SDS011;9747;48.536;12.522;2023-04-03T05:42:30;2.45;;;1.80;;
19225;SDS011;9747;48.536;12.522;2023-04-03T05:44:59;1.67;;;1.58;;
19225;SDS011;9747;48.536;12.522;2023-04-03T05:47:26;3.10;;;1.60;;
19225;SDS011;9747;48.536;12.522;2023-04-03T05:49:54;1.63;;;1.48;;
19225;SDS011;9747;48.536;12.522;2023-04-03T05:52:22;2.92;;;2.08;;
19225;SDS011;9747;48.536;12.522;2023-04-03T05:54:52;1.80;;;1.50;;
19225;SDS011;9747;48.536;12.522;2023-04-03T05:57:24;1.75;;;1.65;;
19225;SDS011;9747;48.536;12.522;2023-04-03T05:59:52;2.08;;;1.55;;
19225;SDS011;9747;48.536;12.522;2023-04-03T06:02:22;1.40;;;1.38;;
19225;SDS011;9747;48.536;12.522;2023-04-03T06:04:51;1.58;;;1.45;;
19225;SDS011;9747;48.536;12.522;2023-04-03T06:07:19;1.60;;;1.50;;
19225;SDS011;9747;48.536;12.522;2023-04-03T06:09:48;1.65;;;1.55;;
19225;SDS011;9747;48.536;12.522;2023-04-03T06:12:17;1.73;;;1.63;;
19225;SDS011;9747;48.536;12.522;2023-04-03T06:14:44;1.67;;;1.50;;
19225;SDS011;9747;48.536;12.522;2023-04-03T06:17:13;1.77;;;1.67;;
19225;SDS011;9747;48.536;12.522;2023-04-03T06:19:42;1.60;;;1.50;;
19225;SDS011;9747;48.536;12.522;2023-04-03T06:22:10;1.75;;;1.65;;
19225;SDS011;9747;48.536;12.522;2023-04-03T06:24:37;1.40;;;1.30;;
19225;SDS011;9747;48.536;12.522;2023-04-03T06:27:05;1.17;;;1.15;;
19225;SDS011;9747;48.536;12.522;2023-04-03T06:29:32;1.80;;;1.70;;
19225;SDS011;9747;48.536;12.522;2023-04-03T06:32:00;1.70;;;1.60;;
19225;SDS011;9747;48.536;12.522;2023-04-03T06:34:27;1.70;;;1.60;;
19225;SDS011;9747;48.536;12.522;2023-04-03T06:36:56;2.10;;;1.58;;
19225;SDS011;9747;48.536;12.522;2023-04-03T06:39:23;1.98;;;1.77;;
19225;SDS011;9747;48.536;12.522;2023-04-03T06:41:50;1.40;;;1.40;;
19225;SDS011;9747;48.536;12.522;2023-04-03T06:44:25;1.60;;;1.50;;
19225;SDS011;9747;48.536;12.522;2023-04-03T06:46:53;1.60;;;1.50;;
19225;SDS011;9747;48.536;12.522;2023-04-03T06:49:20;1.52;;;1.48;;
19225;SDS011;9747;48.536;12.522;2023-04-03T06:51:47;1.75;;;1.58;;
19225;SDS011;9747;48.536;12.522;2023-04-03T06:54:16;1.55;;;1.45;;
19225;SDS011;9747;48.536;12.522;2023-04-03T06:56:44;1.58;;;1.50;;
19225;SDS011;9747;48.536;12.522;2023-04-03T06:59:11;1.40;;;1.33;;
19225;SDS011;9747;48.536;12.522;2023-04-03T07:01:40;1.67;;;1.40;;
19225;SDS011;9747;48.536;12.522;2023-04-03T07:04:08;1.52;;;1.42;;
19225;SDS011;9747;48.536;12.522;2023-04-03T07:06:35;1.65;;;1.45;;
19225;SDS011;9747;48.536;12.522;2023-04-03T07:09:03;1.40;;;1.30;;
19225;SDS011;9747;48.536;12.522;2023-04-03T07:11:32;1.33;;;1.27;;
19225;SDS011;9747;48.536;12.522;2023-04-03T07:13:59;1.98;;;1.77;;
19225;SDS011;9747;48.536;12.522;2023-04-03T07:16:27;1.70;;;1.60;;
19225;SDS011;9747;48.536;12.522;2023-04-03T07:18:55;3.05;;;1.67;;
19225;SDS011;9747;48.536;12.522;2023-04-03T07:21:23;1.65;;;1.55;;
19225;SDS011;9747;48.536;12.522;2023-04-03T07:23:51;1.58;;;1.40;;
19225;SDS011;9747;48.536;12.522;2023-04-03T07:26:18;1.52;;;1.42;;
19225;SDS011;9747;48.536;12.522;2023-04-03T07:28:47;2.05;;;1.50;;
19225;SDS011;9747;48.536;12.522;2023-04-03T07:31:16;2.58;;;1.80;;
19225;SDS011;9747;48.536;12.522;2023-04-03T07:33:44;2.60;;;1.75;;
19225;SDS011;9747;48.536;12.522;2023-04-03T07:36:14;1.58;;;1.48;;
19225;SDS011;9747;48.536;12.522;2023-04-03T07:38:43;1.60;;;1.50;;
19225;SDS011;9747;48.536;12.522;2023-04-03T07:41:11;3.03;;;1.58;;
19225;SDS011;9747;48.536;12.522;2023-04-03T07:43:40;1.85;;;1.70;;
19225;SDS011;9747;48.536;12.522;2023-04-03T07:46:09;1.70;;;1.60;;
19225;SDS011;9747;48.536;12.522;2023-04-03T07:48:37;1.58;;;1.50;;
19225;SDS011;9747;48.536;12.522;2023-04-03T07:51:04;2.00;;;1.90;;
19225;SDS011;9747;48.536;12.522;2023-04-03T07:53:32;2.03;;;1.65;;
19225;SDS011;9747;48.536;12.522;2023-04-03T07:56:00;1.70;;;1.60;;
19225;SDS011;9747;48.536;12.522;2023-04-03T07:58:28;1.85;;;1.73;;
19225;SDS011;9747;48.536;12.522;2023-04-03T08:00:55;2.25;;;2.03;;
19225;SDS011;9747;48.536;12.522;2023-04-03T08:03:24;2.00;;;1.85;;
19225;SDS011;9747;48.536;12.522;2023-04-03T08:05:52;2.97;;;2.00;;
19225;SDS011;9747;48.536;12.522;2023-04-03T08:08:20;2.40;;;2.20;;
19225;SDS011;9747;48.536;12.522;2023-04-03T08:10:49;4.03;;;2.95;;
19225;SDS011;9747;48.536;12.522;2023-04-03T08:13:17;3.65;;;2.60;;
19225;SDS011;9747;48.536;12.522;2023-04-03T08:15:44;3.45;;;2.90;;
19225;SDS011;9747;48.536;12.522;2023-04-03T08:18:12;4.28;;;3.15;;
19225;SDS011;9747;48.536;12.522;2023-04-03T08:20:41;3.90;;;2.88;;
19225;SDS011;9747;48.536;12.522;2023-04-03T08:23:09;2.80;;;2.25;;
19225;SDS011;9747;48.536;12.522;2023-04-03T08:25:37;2.55;;;2.35;;
19225;SDS011;9747;48.536;12.522;2023-04-03T08:28:05;2.40;;;2.20;;
19225;SDS011;9747;48.536;12.522;2023-04-03T08:30:33;2.90;;;2.60;;
19225;SDS011;9747;48.536;12.522;2023-04-03T08:33:01;2.92;;;2.58;;
19225;SDS011;9747;48.536;12.522;2023-04-03T08:35:29;3.63;;;2.50;;
19225;SDS011;9747;48.536;12.522;2023-04-03T08:37:57;3.22;;;2.42;;
19225;SDS011;9747;48.536;12.522;2023-04-03T08:40:26;2.30;;;2.10;;
19225;SDS011;9747;48.536;12.522;2023-04-03T08:42:56;2.45;;;2.25;;
19225;SDS011;9747;48.536;12.522;2023-04-03T08:45:35;2.38;;;2.10;;
19225;SDS011;9747;48.536;12.522;2023-04-03T08:48:12;3.92;;;2.53;;
19225;SDS011;9747;48.536;12.522;2023-04-03T08:50:42;2.97;;;2.15;;
19225;SDS011;9747;48.536;12.522;2023-04-03T08:53:14;2.63;;;2.42;;
19225;SDS011;9747;48.536;12.522;2023-04-03T08:55:43;3.67;;;2.50;;
19225;SDS011;9747;48.536;12.522;2023-04-03T08:58:15;2.78;;;2.47;;
19225;SDS011;9747;48.536;12.522;2023-04-03T09:00:46;2.42;;;2.22;;
19225;SDS011;9747;48.536;12.522;2023-04-03T09:03:17;4.80;;;2.88;;
19225;SDS011;9747;48.536;12.522;2023-04-03T09:05:47;3.45;;;2.70;;
19225;SDS011;9747;48.536;12.522;2023-04-03T09:08:25;3.35;;;2.67;;
19225;SDS011;9747;48.536;12.522;2023-04-03T09:10:58;2.85;;;2.65;;
19225;SDS011;9747;48.536;12.522;2023-04-03T09:13:34;3.63;;;2.63;;
19225;SDS011;9747;48.536;12.522;2023-04-03T09:16:13;3.83;;;2.80;;
19225;SDS011;9747;48.536;12.522;2023-04-03T09:18:51;3.20;;;2.58;;
19225;SDS011;9747;48.536;12.522;2023-04-03T09:21:25;3.63;;;2.85;;
19225;SDS011;9747;48.536;12.522;2023-04-03T09:23:59;3.05;;;2.78;;
19225;SDS011;9747;48.536;12.522;2023-04-03T09:26:28;2.92;;;2.63;;
19225;SDS011;9747;48.536;12.522;2023-04-03T09:28:59;3.08;;;2.83;;
19225;SDS011;9747;48.536;12.522;2023-04-03T09:31:35;2.90;;;2.38;;
19225;SDS011;9747;48.536;12.522;2023-04-03T09:34:06;3.05;;;2.50;;
19225;SDS011;9747;48.536;12.522;2023-04-03T09:36:40;3.03;;;2.75;;
19225;SDS011;9747;48.536;12.522;2023-04-03T09:39:12;2.53;;;2.20;;
19225;SDS011;9747;48.536;12.522;2023-04-03T09:41:42;2.80;;;2.60;;
19225;SDS011;9747;48.536;12.522;2023-04-03T09:44:21;2.35;;;2.15;;
19225;SDS011;9747;48.536;12.522;2023-04-03T09:46:51;2.17;;;2.03;;
19225;SDS011;9747;48.536;12.522;2023-04-03T09:49:18;3.13;;;2.55;;
19225;SDS011;9747;48.536;12.522;2023-04-03T09:51:46;2.38;;;2.25;;
19225;SDS011;9747;48.536;12.522;2023-04-03T09:54:32;3.75;;;2.50;;
19225;SDS011;9747;48.536;12.522;2023-04-03T09:57:06;4.93;;;2.53;;
19225;SDS011;9747;48.536;12.522;2023-04-03T09:59:43;5.78;;;2.50;;
19225;SDS011;9747;48.536;12.522;2023-04-03T10:02:28;3.38;;;2.60;;
19225;SDS011;9747;48.536;12.522;2023-04-03T10:05:02;2.92;;;2.63;;
19225;SDS011;9747;48.536;12.522;2023-04-03T10:07:32;3.10;;;2.38;;
19225;SDS011;9747;48.536;12.522;2023-04-03T10:10:16;2.70;;;2.42;;
19225;SDS011;9747;48.536;12.522;2023-04-03T10:12:47;2.85;;;2.60;;
19225;SDS011;9747;48.536;12.522;2023-04-03T10:15:15;3.65;;;2.53;;
19225;SDS011;9747;48.536;12.522;2023-04-03T10:17:50;2.80;;;2.47;;
19225;SDS011;9747;48.536;12.522;2023-04-03T10:20:26;2.55;;;2.30;;
19225;SDS011;9747;48.536;12.522;2023-04-03T10:23:14;2.92;;;2.22;;
19225;SDS011;9747;48.536;12.522;2023-04-03T10:25:48;2.80;;;2.50;;
19225;SDS011;9747;48.536;12.522;2023-04-03T10:28:27;4.78;;;2.45;;
19225;SDS011;9747;48.536;12.522;2023-04-03T10:31:02;2.95;;;2.30;;
19225;SDS011;9747;48.536;12.522;2023-04-03T10:33:39;2.60;;;2.15;;
19225;SDS011;9747;48.536;12.522;2023-04-03T10:36:19;2.45;;;2.25;;
19225;SDS011;9747;48.536;12.522;2023-04-03T10:38:55;4.07;;;2.50;;
19225;SDS011;9747;48.536;12.522;2023-04-03T10:41:31;2.30;;;2.10;;
19225;SDS011;9747;48.536;12.522;2023-04-03T10:44:12;3.22;;;2.13;;
19225;SDS011;9747;48.536;12.522;2023-04-03T10:46:47;2.95;;;2.00;;
19225;SDS011;9747;48.536;12.522;2023-04-03T10:49:22;2.35;;;2.08;;
19225;SDS011;9747;48.536;12.522;2023-04-03T10:52:00;3.08;;;2.10;;
19225;SDS011;9747;48.536;12.522;2023-04-03T10:54:33;2.40;;;2.10;;
19225;SDS011;9747;48.536;12.522;2023-04-03T10:57:06;2.55;;;2.03;;
19225;SDS011;9747;48.536;12.522;2023-04-03T10:59:36;1.92;;;1.83;;
19225;SDS011;9747;48.536;12.522;2023-04-03T11:02:10;2.00;;;1.90;;
19225;SDS011;9747;48.536;12.522;2023-04-03T11:04:44;2.05;;;1.95;;
19225;SDS011;9747;48.536;12.522;2023-04-03T11:07:18;2.28;;;2.05;;
19225;SDS011;9747;48.536;12.522;2023-04-03T11:09:48;2.30;;;2.10;;
19225;SDS011;9747;48.536;12.522;2023-04-03T11:12:21;2.00;;;1.90;;
19225;SDS011;9747;48.536;12.522;2023-04-03T11:14:53;2.08;;;1.83;;
19225;SDS011;9747;48.536;12.522;2023-04-03T11:17:25;1.70;;;1.58;;
19225;SDS011;9747;48.536;12.522;2023-04-03T11:19:59;2.00;;;1.90;;
19225;SDS011;9747;48.536;12.522;2023-04-03T11:22:33;1.67;;;1.58;;
19225;SDS011;9747;48.536;12.522;2023-04-03T11:25:08;2.22;;;1.92;;
19225;SDS011;9747;48.536;12.522;2023-04-03T11:27:47;2.22;;;1.73;;
19225;SDS011;9747;48.536;12.522;2023-04-03T11:30:18;1.60;;;1.50;;
19225;SDS011;9747;48.536;12.522;2023-04-03T11:32:53;1.88;;;1.77;;
19225;SDS011;9747;48.536;12.522;2023-04-03T11:35:47;1.73;;;1.60;;
19225;SDS011;9747;48.536;12.522;2023-04-03T11:38:17;2.00;;;1.80;;
19225;SDS011;9747;48.536;12.522;2023-04-03T11:40:49;1.70;;;1.60;;
19225;SDS011;9747;48.536;12.522;2023-04-03T11:43:22;1.70;;;1.60;;
19225;SDS011;9747;48.536;12.522;2023-04-03T11:45:52;1.80;;;1.58;;
19225;SDS011;9747;48.536;12.522;2023-04-03T11:48:44;2.13;;;1.60;;
19225;SDS011;9747;48.536;12.522;2023-04-03T11:51:40;1.90;;;1.80;;
19225;SDS011;9747;48.536;12.522;2023-04-03T12:03:30;2.60;;;2.40;;
19225;SDS011;9747;48.536;12.522;2023-04-03T12:12:54;3.30;;;3.00;;
19225;SDS011;9747;48.536;12.522;2023-04-03T12:15:44;4.18;;;2.95;;
19225;SDS011;9747;48.536;12.522;2023-04-03T12:18:31;4.38;;;3.13;;
19225;SDS011;9747;48.536;12.522;2023-04-03T12:21:10;3.22;;;2.92;;
19225;SDS011;9747;48.536;12.522;2023-04-03T12:26:27;3.63;;;3.25;;
19225;SDS011;9747;48.536;12.522;2023-04-03T12:28:58;4.57;;;3.20;;
19225;SDS011;9747;48.536;12.522;2023-04-03T12:31:38;2.72;;;2.47;;
19225;SDS011;9747;48.536;12.522;2023-04-03T12:34:15;3.13;;;2.83;;
19225;SDS011;9747;48.536;12.522;2023-04-03T12:37:08;3.40;;;2.97;;
19225;SDS011;9747;48.536;12.522;2023-04-03T12:39:50;3.15;;;2.53;;
19225;SDS011;9747;48.536;12.522;2023-04-03T12:45:22;2.72;;;2.53;;
19225;SDS011;9747;48.536;12.522;2023-04-03T12:47:52;2.72;;;2.50;;
19225;SDS011;9747;48.536;12.522;2023-04-03T12:50:22;2.78;;;2.58;;
19225;SDS011;9747;48.536;12.522;2023-04-03T12:52:54;2.55;;;2.25;;
19225;SDS011;9747;48.536;12.522;2023-04-03T12:55:24;2.83;;;2.63;;
19225;SDS011;9747;48.536;12.522;2023-04-03T12:57:52;2.67;;;2.25;;
19225;SDS011;9747;48.536;12.522;2023-04-03T13:00:21;2.20;;;2.10;;
19225;SDS011;9747;48.536;12.522;2023-04-03T13:02:56;2.40;;;2.20;;
19225;SDS011;9747;48.536;12.522;2023-04-03T13:05:23;2.50;;;2.30;;
19225;SDS011;9747;48.536;12.522;2023-04-03T13:07:52;2.22;;;2.05;;
19225;SDS011;9747;48.536;12.522;2023-04-03T13:10:23;2.30;;;2.10;;
19225;SDS011;9747;48.536;12.522;2023-04-03T13:12:51;2.50;;;2.30;;
19225;SDS011;9747;48.536;12.522;2023-04-03T13:15:22;2.28;;;2.08;;
19225;SDS011;9747;48.536;12.522;2023-04-03T13:17:51;2.30;;;2.13;;
19225;SDS011;9747;48.536;12.522;2023-04-03T13:20:28;2.00;;;1.90;;
19225;SDS011;9747;48.536;12.522;2023-04-03T13:22:57;2.67;;;2.33;;
19225;SDS011;9747;48.536;12.522;2023-04-03T13:25:28;2.13;;;2.03;;
19225;SDS011;9747;48.536;12.522;2023-04-03T13:27:59;2.40;;;2.20;;
19225;SDS011;9747;48.536;12.522;2023-04-03T13:30:28;2.58;;;2.35;;
19225;SDS011;9747;48.536;12.522;2023-04-03T13:32:58;2.03;;;1.83;;
19225;SDS011;9747;48.536;12.522;2023-04-03T13:35:35;5.50;;;2.45;;
19225;SDS011;9747;48.536;12.522;2023-04-03T13:38:07;3.55;;;2.95;;
19225;SDS011;9747;48.536;12.522;2023-04-03T13:40:49;4.93;;;2.75;;
19225;SDS011;9747;48.536;12.522;2023-04-03T13:43:19;2.10;;;1.88;;
19225;SDS011;9747;48.536;12.522;2023-04-03T13:45:54;2.10;;;1.90;;
19225;SDS011;9747;48.536;12.522;2023-04-03T13:48:25;2.38;;;1.75;;
19225;SDS011;9747;48.536;12.522;2023-04-03T13:50:55;6.22;;;1.90;;
19225;SDS011;9747;48.536;12.522;2023-04-03T13:53:26;1.95;;;1.73;;
19225;SDS011;9747;48.536;12.522;2023-04-03T13:55:55;2.60;;;1.98;;
19225;SDS011;9747;48.536;12.522;2023-04-03T13:58:28;3.28;;;2.17;;
19225;SDS011;9747;48.536;12.522;2023-04-03T14:00:58;4.55;;;2.00;;
19225;SDS011;9747;48.536;12.522;2023-04-03T14:03:38;2.53;;;1.60;;
19225;SDS011;9747;48.536;12.522;2023-04-03T14:06:11;3.22;;;2.00;;
19225;SDS011;9747;48.536;12.522;2023-04-03T14:08:41;2.60;;;2.00;;
19225;SDS011;9747;48.536;12.522;2023-04-03T14:11:11;3.70;;;1.65;;
19225;SDS011;9747;48.536;12.522;2023-04-03T14:13:41;4.18;;;1.85;;
19225;SDS011;9747;48.536;12.522;2023-04-03T14:16:12;4.35;;;1.83;;
19225;SDS011;9747;48.536;12.522;2023-04-03T14:18:41;7.15;;;2.45;;
19225;SDS011;9747;48.536;12.522;2023-04-03T14:21:13;4.45;;;1.70;;
19225;SDS011;9747;48.536;12.522;2023-04-03T14:23:42;2.67;;;1.83;;
19225;SDS011;9747;48.536;12.522;2023-04-03T14:26:11;1.85;;;1.48;;
19225;SDS011;9747;48.536;12.522;2023-04-03T14:28:42;2.60;;;1.63;;
19225;SDS011;9747;48.536;12.522;2023-04-03T14:31:11;4.72;;;1.80;;
19225;SDS011;9747;48.536;12.522;2023-04-03T14:33:39;2.38;;;1.50;;
19225;SDS011;9747;48.536;12.522;2023-04-03T14:36:12;3.05;;;1.88;;
19225;SDS011;9747;48.536;12.522;2023-04-03T14:38:41;2.47;;;1.70;;
19225;SDS011;9747;48.536;12.522;2023-04-03T14:41:10;2.22;;;2.03;;
19225;SDS011;9747;48.536;12.522;2023-04-03T14:43:39;2.88;;;1.90;;
19225;SDS011;9747;48.536;12.522;2023-04-03T14:46:10;3.60;;;2.00;;
19225;SDS011;9747;48.536;12.522;2023-04-03T14:48:40;5.75;;;1.98;;
19225;SDS011;9747;48.536;12.522;2023-04-03T14:51:09;3.15;;;2.10;;
19225;SDS011;9747;48.536;12.522;2023-04-03T14:53:39;2.42;;;2.00;;
19225;SDS011;9747;48.536;12.522;2023-04-03T14:56:11;2.65;;;2.00;;
19225;SDS011;9747;48.536;12.522;2023-04-03T14:58:39;2.22;;;2.03;;
19225;SDS011;9747;48.536;12.522;2023-04-03T15:01:08;2.50;;;2.30;;
19225;SDS011;9747;48.536;12.522;2023-04-03T15:03:37;2.22;;;2.00;;
19225;SDS011;9747;48.536;12.522;2023-04-03T15:06:04;2.20;;;2.03;;
19225;SDS011;9747;48.536;12.522;2023-04-03T15:08:33;2.25;;;2.05;;
19225;SDS011;9747;48.536;12.522;2023-04-03T15:11:01;2.97;;;2.13;;
19225;SDS011;9747;48.536;12.522;2023-04-03T15:13:28;2.22;;;2.00;;
19225;SDS011;9747;48.536;12.522;2023-04-03T15:15:55;2.13;;;1.92;;
19225;SDS011;9747;48.536;12.522;2023-04-03T15:18:23;2.15;;;1.77;;
19225;SDS011;9747;48.536;12.522;2023-04-03T15:20:52;1.80;;;1.70;;
19225;SDS011;9747;48.536;12.522;2023-04-03T15:23:20;3.42;;;2.08;;
19225;SDS011;9747;48.536;12.522;2023-04-03T15:25:52;2.30;;;1.70;;
19225;SDS011;9747;48.536;12.522;2023-04-03T15:28:22;1.90;;;1.80;;
19225;SDS011;9747;48.536;12.522;2023-04-03T15:30:51;1.80;;;1.70;;